sensor_id;sensor_type;location;lat;lon;timestamp;pressure;altitude;pressure_sealevel;temperature;humidity
41800;BME280;27468;47.460;19.034;2024-03-06T00:01:02;100196.34;;;7.19;98.09
41800;BME280;27468;47.460;19.034;2024-03-06T00:03:27;100184.31;;;6.97;98.56
41800;BME280;27468;47.460;19.034;2024-03-06T00:05:53;100208.88;;;6.90;99.09
41800;BME280;27468;47.460;19.034;2024-03-06T00:08:18;100206.13;;;6.99;99.96
41800;BME280;27468;47.460;19.034;2024-03-06T00:10:44;100221.84;;;7.04;99.79
41800;BME280;27468;47.460;19.034;2024-03-06T00:13:10;100230.63;;;6.96;100.00
41800;BME280;27468;47.460;19.034;2024-03-06T00:15:35;100188.81;;;6.84;100.00
41800;BME280;27468;47.460;19.034;2024-03-06T00:18:01;100198.47;;;6.79;100.00
41800;BME280;27468;47.460;19.034;2024-03-06T00:20:27;100213.34;;;6.73;100.00
41800;BME280;27468;47.460;19.034;2024-03-06T00:22:53;100206.31;;;6.78;100.00
41800;BME280;27468;47.460;19.034;2024-03-06T00:25:18;100221.84;;;7.01;100.00
41800;BME280;27468;47.460;19.034;2024-03-06T00:27:44;100227.94;;;7.06;99.82
41800;BME280;27468;47.460;19.034;2024-03-06T00:30:09;100202.84;;;6.77;100.00
41800;BME280;27468;47.460;19.034;2024-03-06T00:32:35;100242.09;;;6.83;100.00
41800;BME280;27468;47.460;19.034;2024-03-06T00:35:01;100242.13;;;6.79;100.00
41800;BME280;27468;47.460;19.034;2024-03-06T00:37:26;100225.56;;;6.72;100.00
41800;BME280;27468;47.460;19.034;2024-03-06T00:39:52;100244.78;;;6.74;100.00
41800;BME280;27468;47.460;19.034;2024-03-06T00:42:17;100248.16;;;6.90;100.00
41800;BME280;27468;47.460;19.034;2024-03-06T00:44:43;100248.22;;;6.82;100.00
41800;BME280;27468;47.460;19.034;2024-03-06T00:47:08;100229.03;;;6.79;100.00
41800;BME280;27468;47.460;19.034;2024-03-06T00:49:33;100216.94;;;6.58;100.00
41800;BME280;27468;47.460;19.034;2024-03-06T00:51:58;100244.78;;;6.74;100.00
41800;BME280;27468;47.460;19.034;2024-03-06T00:54:24;100260.31;;;6.99;100.00
41800;BME280;27468;47.460;19.034;2024-03-06T00:56:49;100224.66;;;6.81;100.00
41800;BME280;27468;47.460;19.034;2024-03-06T00:59:14;100249.97;;;6.83;100.00
41800;BME280;27468;47.460;19.034;2024-03-06T01:01:40;100224.81;;;6.53;100.00
41800;BME280;27468;47.460;19.034;2024-03-06T01:04:06;100256.22;;;6.56;100.00
41800;BME280;27468;47.460;19.034;2024-03-06T01:06:32;100231.06;;;6.34;100.00
41800;BME280;27468;47.460;19.034;2024-03-06T01:08:57;100227.59;;;6.29;100.00
41800;BME280;27468;47.460;19.034;2024-03-06T01:11:23;100243.19;;;6.43;100.00
41800;BME280;27468;47.460;19.034;2024-03-06T01:13:48;100229.19;;;6.51;100.00
41800;BME280;27468;47.460;19.034;2024-03-06T01:16:14;100236.22;;;6.43;100.00
41800;BME280;27468;47.460;19.034;2024-03-06T01:18:39;100220.50;;;6.42;100.00
41800;BME280;27468;47.460;19.034;2024-03-06T01:21:04;100242.28;;;6.53;100.00
41800;BME280;27468;47.460;19.034;2024-03-06T01:23:30;100250.94;;;6.66;100.00
41800;BME280;27468;47.460;19.034;2024-03-06T01:25:55;100246.66;;;6.48;100.00
41800;BME280;27468;47.460;19.034;2024-03-06T01:28:21;100233.69;;;6.28;100.00
41800;BME280;27468;47.460;19.034;2024-03-06T01:30:46;100247.69;;;6.24;100.00
41800;BME280;27468;47.460;19.034;2024-03-06T01:33:12;100264.13;;;6.47;100.00
41800;BME280;27468;47.460;19.034;2024-03-06T01:35:37;100232.88;;;6.21;100.00
41800;BME280;27468;47.460;19.034;2024-03-06T01:38:02;100242.44;;;6.28;100.00
41800;BME280;27468;47.460;19.034;2024-03-06T01:40:28;100220.69;;;6.14;100.00
41800;BME280;27468;47.460;19.034;2024-03-06T01:42:54;100252.91;;;6.28;100.00
41800;BME280;27468;47.460;19.034;2024-03-06T01:45:20;100251.13;;;6.35;100.00
41800;BME280;27468;47.460;19.034;2024-03-06T01:47:45;100264.19;;;6.37;100.00
41800;BME280;27468;47.460;19.034;2024-03-06T01:50:11;100246.88;;;6.08;100.00
41800;BME280;27468;47.460;19.034;2024-03-06T01:52:38;100262.50;;;6.29;100.00
41800;BME280;27468;47.460;19.034;2024-03-06T01:55:05;100240.72;;;6.23;100.00
41800;BME280;27468;47.460;19.034;2024-03-06T01:57:31;100248.56;;;6.21;100.00
41800;BME280;27468;47.460;19.034;2024-03-06T01:59:58;100225.91;;;6.14;100.00
41800;BME280;27468;47.460;19.034;2024-03-06T02:02:24;100226.84;;;5.95;100.00
41800;BME280;27468;47.460;19.034;2024-03-06T02:04:53;100237.31;;;5.96;100.00
41800;BME280;27468;47.460;19.034;2024-03-06T02:07:19;100241.56;;;6.23;100.00
41800;BME280;27468;47.460;19.034;2024-03-06T02:09:45;100225.03;;;6.17;100.00
41800;BME280;27468;47.460;19.034;2024-03-06T02:12:10;100238.97;;;6.19;100.00
41800;BME280;27468;47.460;19.034;2024-03-06T02:14:36;100248.59;;;6.15;100.00
41800;BME280;27468;47.460;19.034;2024-03-06T02:17:02;100243.34;;;6.20;100.00
41800;BME280;27468;47.460;19.034;2024-03-06T02:19:40;100255.56;;;6.13;100.00
41800;BME280;27468;47.460;19.034;2024-03-06T02:22:07;100260.81;;;6.15;100.00
41800;BME280;27468;47.460;19.034;2024-03-06T02:24:33;100239.06;;;5.99;100.00
41800;BME280;27468;47.460;19.034;2024-03-06T02:26:58;100225.09;;;5.85;100.00
41800;BME280;27468;47.460;19.034;2024-03-06T02:29:23;100228.59;;;5.81;100.00
41800;BME280;27468;47.460;19.034;2024-03-06T02:31:49;100258.25;;;5.93;100.00
41800;BME280;27468;47.460;19.034;2024-03-06T02:34:14;100225.09;;;5.83;100.00
41800;BME280;27468;47.460;19.034;2024-03-06T02:36:39;100250.41;;;5.96;100.00
41800;BME280;27468;47.460;19.034;2024-03-06T02:39:05;100247.78;;;5.96;100.00
41800;BME280;27468;47.460;19.034;2024-03-06T02:41:36;100228.66;;;5.75;100.00
41800;BME280;27468;47.460;19.034;2024-03-06T02:44:02;100265.22;;;5.81;100.00
41800;BME280;27468;47.460;19.034;2024-03-06T02:46:28;100231.25;;;5.76;100.00
41800;BME280;27468;47.460;19.034;2024-03-06T02:48:53;100269.59;;;5.94;100.00
41800;BME280;27468;47.460;19.034;2024-03-06T02:51:20;100245.22;;;5.74;100.00
41800;BME280;27468;47.460;19.034;2024-03-06T02:53:46;100271.34;;;5.92;100.00
41800;BME280;27468;47.460;19.034;2024-03-06T02:56:17;100248.66;;;5.82;100.00
41800;BME280;27468;47.460;19.034;2024-03-06T02:58:42;100257.41;;;5.90;100.00
41800;BME280;27468;47.460;19.034;2024-03-06T03:01:08;100267.88;;;5.73;100.00
41800;BME280;27468;47.460;19.034;2024-03-06T03:03:34;100248.72;;;5.74;100.00
41800;BME280;27468;47.460;19.034;2024-03-06T03:06:00;100248.72;;;5.73;100.00
41800;BME280;27468;47.460;19.034;2024-03-06T03:08:25;100237.41;;;5.64;100.00
41800;BME280;27468;47.460;19.034;2024-03-06T03:10:51;100227.81;;;5.63;100.00
41800;BME280;27468;47.460;19.034;2024-03-06T03:13:16;100225.19;;;5.63;100.00
41800;BME280;27468;47.460;19.034;2024-03-06T03:15:41;100260.03;;;5.75;100.00
41800;BME280;27468;47.460;19.034;2024-03-06T03:18:07;100260.91;;;5.74;100.00
41800;BME280;27468;47.460;19.034;2024-03-06T03:20:32;100258.31;;;5.64;100.00
41800;BME280;27468;47.460;19.034;2024-03-06T03:22:57;100252.22;;;5.66;100.00
41800;BME280;27468;47.460;19.034;2024-03-06T03:25:23;100259.16;;;5.73;100.00
41800;BME280;27468;47.460;19.034;2024-03-06T03:27:48;100269.63;;;5.74;100.00
41800;BME280;27468;47.460;19.034;2024-03-06T03:30:14;100264.41;;;5.67;100.00
41800;BME280;27468;47.460;19.034;2024-03-06T03:32:40;100251.34;;;5.63;100.00
41800;BME280;27468;47.460;19.034;2024-03-06T03:35:07;100268.78;;;5.63;100.00
41800;BME280;27468;47.460;19.034;2024-03-06T03:37:33;100269.66;;;5.59;100.00
41800;BME280;27468;47.460;19.034;2024-03-06T03:39:58;100282.72;;;5.68;100.00
41800;BME280;27468;47.460;19.034;2024-03-06T03:42:24;100294.03;;;5.75;100.00
41800;BME280;27468;47.460;19.034;2024-03-06T03:44:49;100253.09;;;5.49;100.00
41800;BME280;27468;47.460;19.034;2024-03-06T03:47:14;100259.19;;;5.51;100.00
41800;BME280;27468;47.460;19.034;2024-03-06T03:49:39;100254.84;;;5.52;100.00
41800;BME280;27468;47.460;19.034;2024-03-06T03:52:05;100291.44;;;5.61;100.00
41800;BME280;27468;47.460;19.034;2024-03-06T03:54:30;100265.31;;;5.52;100.00
41800;BME280;27468;47.460;19.034;2024-03-06T03:56:56;100282.72;;;5.60;100.00
41800;BME280;27468;47.460;19.034;2024-03-06T03:59:22;100296.66;;;5.64;100.00
41800;BME280;27468;47.460;19.034;2024-03-06T04:01:47;100275.75;;;5.50;100.00
41800;BME280;27468;47.460;19.034;2024-03-06T04:04:13;100265.31;;;5.49;100.00
41800;BME280;27468;47.460;19.034;2024-03-06T04:06:38;100293.19;;;5.59;100.00
41800;BME280;27468;47.460;19.034;2024-03-06T04:09:03;100274.91;;;5.48;100.00
41800;BME280;27468;47.460;19.034;2024-03-06T04:11:30;100302.78;;;5.61;100.00
41800;BME280;27468;47.460;19.034;2024-03-06T04:13:55;100273.16;;;5.37;100.00
41800;BME280;27468;47.460;19.034;2024-03-06T04:16:20;100283.59;;;5.43;100.00
41800;BME280;27468;47.460;19.034;2024-03-06T04:18:46;100278.38;;;5.38;100.00
41800;BME280;27468;47.460;19.034;2024-03-06T04:21:12;100312.38;;;5.58;100.00
41800;BME280;27468;47.460;19.034;2024-03-06T04:23:39;100307.13;;;5.41;100.00
41800;BME280;27468;47.460;19.034;2024-03-06T04:26:04;100289.72;;;5.29;100.00
41800;BME280;27468;47.460;19.034;2024-03-06T04:28:31;100295.81;;;5.39;100.00
41800;BME280;27468;47.460;19.034;2024-03-06T04:30:57;100323.69;;;5.40;100.00
41800;BME280;27468;47.460;19.034;2024-03-06T04:33:22;100284.47;;;5.28;100.00
41800;BME280;27468;47.460;19.034;2024-03-06T04:35:47;100301.03;;;5.33;100.00
41800;BME280;27468;47.460;19.034;2024-03-06T04:38:13;100308.88;;;5.30;100.00
41800;BME280;27468;47.460;19.034;2024-03-06T04:40:39;100314.09;;;5.33;100.00
41800;BME280;27468;47.460;19.034;2024-03-06T04:43:04;100327.19;;;5.30;100.00
41800;BME280;27468;47.460;19.034;2024-03-06T04:45:30;100327.16;;;5.22;100.00
41800;BME280;27468;47.460;19.034;2024-03-06T04:47:56;100328.06;;;5.17;100.00
41800;BME280;27468;47.460;19.034;2024-03-06T04:50:21;100333.25;;;5.21;100.00
41800;BME280;27468;47.460;19.034;2024-03-06T04:52:46;100312.34;;;5.02;100.00
41800;BME280;27468;47.460;19.034;2024-03-06T04:55:12;100314.09;;;5.07;100.00
41800;BME280;27468;47.460;19.034;2024-03-06T04:57:42;100335.03;;;5.19;100.00
41800;BME280;27468;47.460;19.034;2024-03-06T05:00:08;100335.03;;;5.15;100.00
41800;BME280;27468;47.460;19.034;2024-03-06T05:02:34;100353.31;;;5.27;100.00
41800;BME280;27468;47.460;19.034;2024-03-06T05:05:01;100338.50;;;5.23;100.00
41800;BME280;27468;47.460;19.034;2024-03-06T05:07:28;100347.19;;;5.23;100.00
41800;BME280;27468;47.460;19.034;2024-03-06T05:09:54;100334.13;;;5.25;100.00
41800;BME280;27468;47.460;19.034;2024-03-06T05:12:19;100343.72;;;5.21;100.00
41800;BME280;27468;47.460;19.034;2024-03-06T05:14:45;100341.09;;;5.21;100.00
41800;BME280;27468;47.460;19.034;2024-03-06T05:17:10;100334.16;;;5.31;100.00
41800;BME280;27468;47.460;19.034;2024-03-06T05:19:36;100328.03;;;5.32;100.00
41800;BME280;27468;47.460;19.034;2024-03-06T05:22:01;100330.66;;;5.37;100.00
41800;BME280;27468;47.460;19.034;2024-03-06T05:24:26;100339.38;;;5.31;100.00
41800;BME280;27468;47.460;19.034;2024-03-06T05:26:52;100337.63;;;5.31;100.00
41800;BME280;27468;47.460;19.034;2024-03-06T05:29:17;100326.31;;;5.31;100.00
41800;BME280;27468;47.460;19.034;2024-03-06T05:31:43;100330.66;;;5.27;100.00
41800;BME280;27468;47.460;19.034;2024-03-06T05:34:08;100320.19;;;5.27;100.00
41800;BME280;27468;47.460;19.034;2024-03-06T05:36:33;100341.13;;;5.35;100.00
41800;BME280;27468;47.460;19.034;2024-03-06T05:38:59;100350.72;;;5.42;100.00
41800;BME280;27468;47.460;19.034;2024-03-06T05:41:24;100361.19;;;5.50;100.00
41800;BME280;27468;47.460;19.034;2024-03-06T05:43:49;100346.34;;;5.44;100.00
41800;BME280;27468;47.460;19.034;2024-03-06T05:46:15;100349.84;;;5.54;100.00
41800;BME280;27468;47.460;19.034;2024-03-06T05:48:41;100325.44;;;5.53;100.00
41800;BME280;27468;47.460;19.034;2024-03-06T05:51:06;100342.88;;;5.60;100.00
41800;BME280;27468;47.460;19.034;2024-03-06T05:53:36;100347.25;;;5.63;100.00
41800;BME280;27468;47.460;19.034;2024-03-06T05:56:04;100323.69;;;5.45;100.00
41800;BME280;27468;47.460;19.034;2024-03-06T05:58:30;100351.59;;;5.64;100.00
41800;BME280;27468;47.460;19.034;2024-03-06T06:00:56;100349.84;;;5.66;100.00
41800;BME280;27468;47.460;19.034;2024-03-06T06:03:21;100337.66;;;5.63;100.00
41800;BME280;27468;47.460;19.034;2024-03-06T06:05:46;100352.47;;;5.64;100.00
41800;BME280;27468;47.460;19.034;2024-03-06T06:08:12;100353.34;;;5.73;100.00
41800;BME280;27468;47.460;19.034;2024-03-06T06:10:37;100357.69;;;5.75;100.00
41800;BME280;27468;47.460;19.034;2024-03-06T06:13:02;100365.50;;;5.78;100.00
41800;BME280;27468;47.460;19.034;2024-03-06T06:15:29;100350.69;;;5.86;100.00
41800;BME280;27468;47.460;19.034;2024-03-06T06:17:55;100361.19;;;5.89;100.00
41800;BME280;27468;47.460;19.034;2024-03-06T06:20:20;100371.66;;;5.89;100.00
41800;BME280;27468;47.460;19.034;2024-03-06T06:22:46;100355.06;;;5.92;100.00
41800;BME280;27468;47.460;19.034;2024-03-06T06:25:11;100376.00;;;6.09;100.00
41800;BME280;27468;47.460;19.034;2024-03-06T06:27:37;100364.63;;;6.14;100.00
41800;BME280;27468;47.460;19.034;2024-03-06T06:30:03;100353.28;;;6.18;100.00
41800;BME280;27468;47.460;19.034;2024-03-06T06:32:29;100377.69;;;6.33;100.00
41800;BME280;27468;47.460;19.034;2024-03-06T06:34:55;100328.00;;;6.16;100.00
41800;BME280;27468;47.460;19.034;2024-03-06T06:37:21;100353.22;;;6.37;100.00
41800;BME280;27468;47.460;19.034;2024-03-06T06:39:47;100350.56;;;6.41;100.00
41800;BME280;27468;47.460;19.034;2024-03-06T06:42:13;100350.56;;;6.41;100.00
41800;BME280;27468;47.460;19.034;2024-03-06T06:44:38;100350.59;;;6.37;100.00
41800;BME280;27468;47.460;19.034;2024-03-06T06:47:04;100339.22;;;6.42;100.00
41800;BME280;27468;47.460;19.034;2024-03-06T06:49:29;100352.28;;;6.54;100.00
41800;BME280;27468;47.460;19.034;2024-03-06T06:51:54;100354.03;;;6.54;100.00
41800;BME280;27468;47.460;19.034;2024-03-06T06:54:20;100356.59;;;6.63;100.00
41800;BME280;27468;47.460;19.034;2024-03-06T06:56:45;100366.16;;;6.76;100.00
41800;BME280;27468;47.460;19.034;2024-03-06T06:59:10;100372.16;;;6.95;100.00
41800;BME280;27468;47.460;19.034;2024-03-06T07:01:35;100381.75;;;6.97;100.00
41800;BME280;27468;47.460;19.034;2024-03-06T07:04:01;100361.63;;;7.06;100.00
41800;BME280;27468;47.460;19.034;2024-03-06T07:06:27;100392.16;;;7.16;100.00
41800;BME280;27468;47.460;19.034;2024-03-06T07:08:52;100388.53;;;7.34;100.00
41800;BME280;27468;47.460;19.034;2024-03-06T07:11:18;100367.59;;;7.31;100.00
41800;BME280;27468;47.460;19.034;2024-03-06T07:13:44;100349.16;;;7.40;100.00
41800;BME280;27468;47.460;19.034;2024-03-06T07:16:09;100365.50;;;7.71;100.00
41800;BME280;27468;47.460;19.034;2024-03-06T07:18:34;100373.31;;;7.81;100.00
41800;BME280;27468;47.460;19.034;2024-03-06T07:21:00;100354.03;;;7.82;100.00
41800;BME280;27468;47.460;19.034;2024-03-06T07:23:26;100383.56;;;8.07;100.00
41800;BME280;27468;47.460;19.034;2024-03-06T07:25:51;100379.91;;;8.22;99.54
41800;BME280;27468;47.460;19.034;2024-03-06T07:28:16;100353.66;;;8.20;99.32
41800;BME280;27468;47.460;19.034;2024-03-06T07:30:42;100375.25;;;8.50;99.08
41800;BME280;27468;47.460;19.034;2024-03-06T07:33:07;100370.00;;;8.51;98.24
41800;BME280;27468;47.460;19.034;2024-03-06T07:35:35;100378.44;;;8.75;97.57
41800;BME280;27468;47.460;19.034;2024-03-06T07:38:02;100353.91;;;8.76;96.92
41800;BME280;27468;47.460;19.034;2024-03-06T07:40:29;100339.81;;;8.80;95.83
41800;BME280;27468;47.460;19.034;2024-03-06T07:42:55;100392.75;;;9.20;95.62
41800;BME280;27468;47.460;19.034;2024-03-06T07:45:20;100376.94;;;9.21;95.27
41800;BME280;27468;47.460;19.034;2024-03-06T07:47:46;100390.53;;;9.49;93.74
41800;BME280;27468;47.460;19.034;2024-03-06T07:50:11;100367.63;;;9.57;92.00
41800;BME280;27468;47.460;19.034;2024-03-06T07:52:37;100388.88;;;9.98;90.33
41800;BME280;27468;47.460;19.034;2024-03-06T07:55:03;100368.63;;;10.01;89.72
41800;BME280;27468;47.460;19.034;2024-03-06T07:57:28;100385.00;;;10.18;89.32
41800;BME280;27468;47.460;19.034;2024-03-06T07:59:53;100379.69;;;10.23;89.41
41800;BME280;27468;47.460;19.034;2024-03-06T08:02:20;100362.94;;;10.25;88.72
41800;BME280;27468;47.460;19.034;2024-03-06T08:04:46;100384.25;;;10.58;88.11
41800;BME280;27468;47.460;19.034;2024-03-06T08:07:12;100371.25;;;10.49;86.18
41800;BME280;27468;47.460;19.034;2024-03-06T08:09:38;100380.88;;;10.51;87.09
41800;BME280;27468;47.460;19.034;2024-03-06T08:12:03;100380.50;;;10.70;87.16
41800;BME280;27468;47.460;19.034;2024-03-06T08:14:29;100394.78;;;11.01;86.09
41800;BME280;27468;47.460;19.034;2024-03-06T08:16:54;100396.28;;;11.13;85.02
41800;BME280;27468;47.460;19.034;2024-03-06T08:19:20;100374.94;;;10.83;84.10
41800;BME280;27468;47.460;19.034;2024-03-06T08:21:45;100384.19;;;11.03;83.08
41800;BME280;27468;47.460;19.034;2024-03-06T08:24:11;100386.53;;;11.16;82.13
41800;BME280;27468;47.460;19.034;2024-03-06T08:26:36;100376.56;;;10.90;83.63
41800;BME280;27468;47.460;19.034;2024-03-06T08:29:01;100389.09;;;11.19;82.84
41800;BME280;27468;47.460;19.034;2024-03-06T08:31:27;100371.75;;;11.08;82.07
41800;BME280;27468;47.460;19.034;2024-03-06T08:33:52;100370.91;;;11.07;81.66
41800;BME280;27468;47.460;19.034;2024-03-06T08:36:19;100374.34;;;11.11;80.58
41800;BME280;27468;47.460;19.034;2024-03-06T08:38:44;100374.53;;;11.02;80.86
41800;BME280;27468;47.460;19.034;2024-03-06T08:41:09;100392.47;;;11.26;79.80
41800;BME280;27468;47.460;19.034;2024-03-06T08:43:35;100378.69;;;11.13;79.44
41800;BME280;27468;47.460;19.034;2024-03-06T08:46:00;100387.69;;;11.03;79.58
41800;BME280;27468;47.460;19.034;2024-03-06T08:48:25;100369.41;;;10.96;79.54
41800;BME280;27468;47.460;19.034;2024-03-06T08:50:50;100388.28;;;11.16;79.64
41800;BME280;27468;47.460;19.034;2024-03-06T08:53:16;100401.16;;;11.31;79.82
41800;BME280;27468;47.460;19.034;2024-03-06T08:55:42;100391.53;;;11.29;79.99
41800;BME280;27468;47.460;19.034;2024-03-06T08:58:07;100390.44;;;11.39;78.48
41800;BME280;27468;47.460;19.034;2024-03-06T09:00:34;100367.63;;;11.36;77.11
41800;BME280;27468;47.460;19.034;2024-03-06T09:02:59;100391.97;;;11.49;75.33
41800;BME280;27468;47.460;19.034;2024-03-06T09:05:25;100365.97;;;11.31;75.22
41800;BME280;27468;47.460;19.034;2024-03-06T09:07:51;100364.41;;;11.22;73.76
41800;BME280;27468;47.460;19.034;2024-03-06T09:10:17;100401.81;;;11.41;73.85
41800;BME280;27468;47.460;19.034;2024-03-06T09:12:44;100370.75;;;11.52;73.44
41800;BME280;27468;47.460;19.034;2024-03-06T09:15:09;100375.72;;;11.64;72.23
41800;BME280;27468;47.460;19.034;2024-03-06T09:17:36;100379.44;;;11.94;71.48
41800;BME280;27468;47.460;19.034;2024-03-06T09:20:02;100389.09;;;11.95;70.05
41800;BME280;27468;47.460;19.034;2024-03-06T09:22:40;100382.97;;;11.93;70.73
41800;BME280;27468;47.460;19.034;2024-03-06T09:25:06;100383.25;;;12.15;70.69
41800;BME280;27468;47.460;19.034;2024-03-06T09:27:32;100366.66;;;12.11;69.95
41800;BME280;27468;47.460;19.034;2024-03-06T09:29:58;100355.22;;;12.11;68.98
41800;BME280;27468;47.460;19.034;2024-03-06T09:32:24;100378.25;;;12.38;68.35
41800;BME280;27468;47.460;19.034;2024-03-06T09:34:51;100340.91;;;12.18;68.44
41800;BME280;27468;47.460;19.034;2024-03-06T09:37:16;100356.44;;;12.61;67.62
41800;BME280;27468;47.460;19.034;2024-03-06T09:39:42;100372.53;;;12.83;68.07
41800;BME280;27468;47.460;19.034;2024-03-06T09:42:07;100356.75;;;12.80;68.54
41800;BME280;27468;47.460;19.034;2024-03-06T09:44:33;100356.75;;;12.80;68.99
41800;BME280;27468;47.460;19.034;2024-03-06T09:47:02;100377.44;;;12.97;69.54
41800;BME280;27468;47.460;19.034;2024-03-06T09:49:28;100373.00;;;12.97;69.09
41800;BME280;27468;47.460;19.034;2024-03-06T09:51:56;100357.22;;;12.94;69.36
41800;BME280;27468;47.460;19.034;2024-03-06T09:54:25;100372.31;;;12.90;69.33
41800;BME280;27468;47.460;19.034;2024-03-06T09:56:51;100363.47;;;12.92;70.11
41800;BME280;27468;47.460;19.034;2024-03-06T09:59:16;100359.09;;;12.90;69.10
41800;BME280;27468;47.460;19.034;2024-03-06T10:01:50;100363.22;;;13.01;69.56
41800;BME280;27468;47.460;19.034;2024-03-06T10:04:22;100374.22;;;13.16;69.30
41800;BME280;27468;47.460;19.034;2024-03-06T10:06:50;100382.41;;;13.07;69.76
41800;BME280;27468;47.460;19.034;2024-03-06T10:09:20;100374.19;;;13.18;69.08
41800;BME280;27468;47.460;19.034;2024-03-06T10:11:45;100350.84;;;13.01;69.55
41800;BME280;27468;47.460;19.034;2024-03-06T10:14:11;100367.13;;;13.18;69.36
41800;BME280;27468;47.460;19.034;2024-03-06T10:16:37;100327.03;;;13.01;68.94
41800;BME280;27468;47.460;19.034;2024-03-06T10:19:16;100360.25;;;13.39;67.43
41800;BME280;27468;47.460;19.034;2024-03-06T10:21:44;100370.19;;;13.61;67.05
41800;BME280;27468;47.460;19.034;2024-03-06T10:24:17;100324.06;;;13.40;66.98
41800;BME280;27468;47.460;19.034;2024-03-06T10:26:43;100348.72;;;13.68;66.85
41800;BME280;27468;47.460;19.034;2024-03-06T10:29:09;100335.72;;;13.87;65.74
41800;BME280;27468;47.460;19.034;2024-03-06T10:31:34;100342.13;;;14.06;64.98
41800;BME280;27468;47.460;19.034;2024-03-06T10:33:59;100349.38;;;14.51;62.83
41800;BME280;27468;47.460;19.034;2024-03-06T10:36:31;100317.31;;;14.57;62.61
41800;BME280;27468;47.460;19.034;2024-03-06T10:38:59;100342.03;;;14.82;61.72
41800;BME280;27468;47.460;19.034;2024-03-06T10:41:28;100331.00;;;14.70;60.73
41800;BME280;27468;47.460;19.034;2024-03-06T10:43:59;100322.16;;;14.69;59.56
41800;BME280;27468;47.460;19.034;2024-03-06T10:46:27;100300.81;;;14.72;60.33
41800;BME280;27468;47.460;19.034;2024-03-06T10:48:54;100328.66;;;15.07;60.12
41800;BME280;27468;47.460;19.034;2024-03-06T10:51:21;100315.94;;;15.15;58.83
41800;BME280;27468;47.460;19.034;2024-03-06T10:53:48;100300.44;;;15.27;58.41
41800;BME280;27468;47.460;19.034;2024-03-06T10:56:17;100300.50;;;15.47;58.43
41800;BME280;27468;47.460;19.034;2024-03-06T10:58:43;100314.31;;;15.77;57.83
41800;BME280;27468;47.460;19.034;2024-03-06T11:01:09;100313.22;;;16.03;56.89
41800;BME280;27468;47.460;19.034;2024-03-06T11:03:35;100305.56;;;15.95;56.29
41800;BME280;27468;47.460;19.034;2024-03-06T11:06:02;100299.06;;;16.02;56.54
41800;BME280;27468;47.460;19.034;2024-03-06T11:08:29;100284.78;;;16.24;55.47
41800;BME280;27468;47.460;19.034;2024-03-06T11:11:32;100312.31;;;16.43;55.52
41800;BME280;27468;47.460;19.034;2024-03-06T11:14:03;100306.91;;;16.44;54.45
41800;BME280;27468;47.460;19.034;2024-03-06T11:16:30;100280.00;;;16.32;54.77
41800;BME280;27468;47.460;19.034;2024-03-06T11:19:08;100284.34;;;16.53;54.46
41800;BME280;27468;47.460;19.034;2024-03-06T11:21:34;100292.47;;;16.70;53.71
41800;BME280;27468;47.460;19.034;2024-03-06T11:24:12;100295.34;;;16.66;53.59
41800;BME280;27468;47.460;19.034;2024-03-06T11:26:42;100286.94;;;16.75;53.83
41800;BME280;27468;47.460;19.034;2024-03-06T11:29:08;100285.09;;;16.75;53.56
41800;BME280;27468;47.460;19.034;2024-03-06T11:31:35;100264.56;;;16.59;54.10
41800;BME280;27468;47.460;19.034;2024-03-06T11:34:04;100274.13;;;16.64;53.92
41800;BME280;27468;47.460;19.034;2024-03-06T11:36:30;100279.00;;;16.73;53.52
41800;BME280;27468;47.460;19.034;2024-03-06T11:38:57;100250.88;;;16.68;53.08
41800;BME280;27468;47.460;19.034;2024-03-06T11:44:12;100265.31;;;16.81;53.89
41800;BME280;27468;47.460;19.034;2024-03-06T11:49:17;100256.81;;;16.92;51.79
41800;BME280;27468;47.460;19.034;2024-03-06T11:51:49;100243.22;;;16.79;51.97
41800;BME280;27468;47.460;19.034;2024-03-06T11:54:14;100256.97;;;16.89;52.79
41800;BME280;27468;47.460;19.034;2024-03-06T11:56:41;100246.81;;;16.78;52.42
41800;BME280;27468;47.460;19.034;2024-03-06T11:59:07;100229.38;;;16.72;51.97
41800;BME280;27468;47.460;19.034;2024-03-06T12:01:33;100259.56;;;16.90;52.04
41800;BME280;27468;47.460;19.034;2024-03-06T12:03:59;100249.81;;;17.08;51.75
41800;BME280;27468;47.460;19.034;2024-03-06T12:06:27;100271.28;;;17.05;51.09
41800;BME280;27468;47.460;19.034;2024-03-06T12:08:53;100255.53;;;16.81;52.38
41800;BME280;27468;47.460;19.034;2024-03-06T12:11:18;100250.63;;;16.91;53.25
41800;BME280;27468;47.460;19.034;2024-03-06T12:13:46;100240.13;;;16.88;52.71
41800;BME280;27468;47.460;19.034;2024-03-06T12:16:14;100255.78;;;17.13;52.28
41800;BME280;27468;47.460;19.034;2024-03-06T12:18:41;100250.09;;;17.21;50.00
41800;BME280;27468;47.460;19.034;2024-03-06T12:21:07;100221.34;;;16.91;50.59
41800;BME280;27468;47.460;19.034;2024-03-06T12:23:32;100216.56;;;16.98;50.07
41800;BME280;27468;47.460;19.034;2024-03-06T12:26:05;100232.16;;;17.24;49.03
41800;BME280;27468;47.460;19.034;2024-03-06T12:28:30;100224.69;;;17.13;48.85
41800;BME280;27468;47.460;19.034;2024-03-06T12:30:57;100235.75;;;17.23;48.96
41800;BME280;27468;47.460;19.034;2024-03-06T12:33:26;100231.06;;;17.28;48.80
41800;BME280;27468;47.460;19.034;2024-03-06T12:36:05;100236.91;;;17.35;49.32
41800;BME280;27468;47.460;19.034;2024-03-06T12:38:32;100232.28;;;17.38;48.20
41800;BME280;27468;47.460;19.034;2024-03-06T12:40:58;100232.06;;;17.43;48.70